Endeavor CRJ2 at Kalamazoo on Dec 26th 2021, wing tip strike on landing

Last Update: January 21, 2022 / 19:56:09 GMT/Zulu time

Bookmark this article
Incident Facts

Date of incident
Dec 26, 2021

Classification
Accident

Flight number
DL-4777

Aircraft Registration
N8980A

ICAO Type Designator
CRJ2

Airport ICAO Code
KAZO

An Endeavor Airlines Canadair CRJ-200 on behalf of Delta Airlines, registration N8980A performing flight DL-4777 from Detroit,MI to Kalamazoo,MI (USA), landed on Kalamazoo's runway 35 at 23:41L (04:41Z Dec 27th) but struck its right hand wingtip onto the runway surface. The aircraft rolled out without further incident.

Following repairs of the right wingtip the aircraft was able to position to Detroit on Dec 28th 2021, however, then remained on the ground in Detroit until Jan 4th 2022 (7 days).



Metars:
KAZO 270553Z AUTO 09012G18KT 10SM SCT080 OVC095 01/M04 A2991 RMK AO2 SLP138 T00111039 10017 20006 55043=
KAZO 270453Z AUTO 07011G20KT 10SM OVC095 01/M03 A2991 RMK AO2 SLP139 T00111028 400391044=
KAZO 270353Z AUTO 11009KT 10SM OVC110 01/M04 A3001 RMK AO2 SLP173 T00111039=
KAZO 270253Z 09007KT 10SM BKN120 01/M04 A3005 RMK AO2 SLP185 T00111039 58019=
KAZO 270153Z 10007KT 10SM CLR 01/M04 A3007 RMK AO2 SLP194 T00061044=
KAZO 270053Z 10005KT 10SM CLR 01/M05 A3010 RMK AO2 SLP203 T00061050=
Aircraft Registration Data
Registration mark
N8980A
Country of Registration
United States
Date of Registration
QecpjbcAjipqbbmm Subscribe to unlock
Manufacturer
BOMBARDIER INC
Aircraft Model / Type
CL-600-2B19
Number of Seats
ICAO Aircraft Type
CRJ2
Year of Manufacture
Serial Number
Aircraft Address / Mode S Code (HEX)
Engine Count
Engine Manufacturer
Engine Model
Engine Type
Pounds of Thrust
Main Owner
B ifbnklphidkmkkAqclfgAjnjdbpnedAfiigh mg jehhi bek iikpcAqjlime Amqffbmdnqjnfqikghp k gjpjAlgdiikgcgqq b Subscribe to unlock
Incident Facts

Date of incident
Dec 26, 2021

Classification
Accident

Flight number
DL-4777

Aircraft Registration
N8980A

ICAO Type Designator
CRJ2

Airport ICAO Code
KAZO

This article is published under license from Avherald.com. © of text by Avherald.com.
Article source

You can read 4 more free articles without a subscription.

Subscribe now and continue reading without any limits!

Are you a subscriber?
Login
Subscribe

Read unlimited articles and receive our daily update briefing. Gain better insights into what is happening in commercial aviation safety.

Free newsletter

Want to know more and stay ahead? Get our free weekly newsletter and join 5152 existing subscribers.

By subscribing, you accept our terms and conditions and confirm that you've read our privacy policy.

Send tip

Support AeroInside by sending a small tip amount.

Related articles

Newest articles

Subscribe today

Are you researching aviation incidents? Get access to AeroInside Insights, unlimited read access and receive the daily newsletter.

Pick your plan and subscribe

Partner

Blockaviation logo

A new way to document and demonstrate airworthiness compliance and aircraft value. Find out more.

Virtual Speech logo

ELITE Simulation Solutions is a leading global provider of Flight Simulation Training Devices, IFR training software as well as flight controls and related services. Find out more.

Get updates

Never miss an article from AeroInside. Subscribe to our free weekly newsletter and join 5152 existing subscribers.

By subscribing, you accept our terms and conditions and that you've read our privacy policy.

AeroInside Blog
Popular aircraft
Airbus A320
Boeing 737-800
Boeing 737-800 MAX
Popular airlines
American Airlines
United
Delta
Air Canada
Lufthansa
British Airways